Torm Estrid — OXMF2 — position and weather

sailwx.info

Track history (hours):
 
Tides and Currents Weather Stations Pressure Air Temp Water Temp Dewpoint Dewpoint Depression Visibility Wind Speed Wind Dir Waves Ship Positions

Torm Estrid

Last reported at 2017-Sep-17 22:12 UTC. Time now 2017-Sep-25 06:29 UTC.
Position N 32°51' E 028°47'.

Length 229 m; draft 12.6 m.

Type: Ship (hazmat cat C). MMSI: 220237000.

Date/timePositionNaut miles runAvg speedWind from/ knotsBaromVisibWave heightAir tempDewpointWater temp
2017-Sep-17 22:12N 32°51' E 028°47'11411.9
2017-Sep-17 12:38N 33°34' E 026°41'212.4
2017-Sep-17 12:27N 33°35' E 026°38'14811.7
2017-Sep-16 23:47N 34°26' E 023°51'1811.8
2017-Sep-16 22:17N 34°31' E 023°31'711.6
2017-Sep-16 21:40N 34°32' E 023°22'211.8
2017-Sep-16 21:29N 34°33' E 023°20'2611.9
2017-Sep-16 19:19N 34°39' E 022°50'412.0
2017-Sep-16 19:00N 34°40' E 022°45'611.6
2017-Sep-16 18:28N 34°42' E 022°38'3912.2
2017-Sep-16 15:15N 34°52' E 021°52'7711.2
2017-Sep-16 08:26N 35°11' E 020°21'13411.4
2017-Sep-15 20:37N 35°44' E 017°41'211.5
2017-Sep-15 20:27N 35°44' E 017°39'6911.5
2017-Sep-15 14:30N 36°02' E 016°17'510.6
2017-Sep-15 14:00N 36°03' E 016°11'3713.9
2017-Sep-15 11:23N 36°12' E 015°27'711.8
2017-Sep-15 10:48N 36°14' E 015°18'411.8
2017-Sep-15 10:26N 36°15' E 015°13'512.0
2017-Sep-15 10:00N 36°16' E 015°07'711.8
2017-Sep-15 09:23N 36°18' E 014°58'512.7
2017-Sep-15 08:58N 36°19' E 014°52'612.8
2017-Sep-15 08:30N 36°20' E 014°45'612.7
2017-Sep-15 08:00N 36°22' E 014°37'712.7
2017-Sep-15 07:29N 36°24' E 014°29'612.6
2017-Sep-15 07:00N 36°25' E 014°22'612.4
2017-Sep-15 06:30N 36°28' E 014°15'612.5
2017-Sep-15 06:00N 36°30' E 014°07'712.7
2017-Sep-15 05:26N 36°32' E 013°59'512.7
2017-Sep-15 05:00N 36°34' E 013°53'612.8
2017-Sep-15 04:30N 36°37' E 013°45'612.9
2017-Sep-15 04:00N 36°39' E 013°38'612.7
2017-Sep-15 03:30N 36°41' E 013°30'612.8
2017-Sep-15 03:00N 36°43' E 013°23'612.9
2017-Sep-15 02:30N 36°46' E 013°16'612.7
2017-Sep-15 02:00N 36°48' E 013°08'612.6
2017-Sep-15 01:30N 36°50' E 013°01'612.5
2017-Sep-15 01:00N 36°52' E 012°53'612.6
2017-Sep-15 00:30N 36°54' E 012°46'612.7
2017-Sep-15 00:00N 36°56' E 012°38'612.7
2017-Sep-14 23:29N 36°58' E 012°31'612.6
2017-Sep-14 23:00N 36°60' E 012°23'1212.4
2017-Sep-14 22:04N 37°04' E 012°09'1312.0
2017-Sep-14 20:58N 37°08' E 011°54'712.1
2017-Sep-14 20:24N 37°10' E 011°46'512.0
2017-Sep-14 20:00N 37°12' E 011°40'612.0
2017-Sep-14 19:30N 37°14' E 011°33'611.9
2017-Sep-14 19:00N 37°16' E 011°26'611.9
2017-Sep-14 18:30N 37°18' E 011°19'10512.1
2017-Sep-14 09:49N 37°41' E 009°10'412.1
2017-Sep-14 09:29N 37°41' E 009°05'612.0
2017-Sep-14 09:00N 37°42' E 008°58'1112.0
2017-Sep-14 08:04N 37°43' E 008°44'111.9
2017-Sep-14 08:00N 37°43' E 008°43'612.0
2017-Sep-14 07:29N 37°42' E 008°35'40411.8
2017-Sep-12 21:15N 36°43' E 000°13'24212.3
2017-Sep-12 01:35N 36°03' W 004°43'413.9
2017-Sep-12 01:18N 36°03' W 004°48'513.8
2017-Sep-12 00:58N 36°03' W 004°54'613.6
2017-Sep-12 00:30N 36°02' W 005°02'714.1
2017-Sep-12 00:00N 36°01' W 005°10'612.6
2017-Sep-11 23:31N 36°01' W 005°18'612.3
2017-Sep-11 23:00N 36°05' W 005°24'0 0.9
2017-Sep-11 22:30N 36°05' W 005°24'0 0.1
2017-Sep-11 22:00N 36°05' W 005°24'0 0.0
2017-Sep-11 21:30N 36°05' W 005°24'0 0.0
2017-Sep-11 21:00N 36°05' W 005°24'0 0.1
2017-Sep-11 20:30N 36°05' W 005°24'0 0.1
2017-Sep-11 20:00N 36°05' W 005°24'0 0.9
2017-Sep-11 19:30N 36°05' W 005°24'3 6.3
2017-Sep-11 19:00N 36°03' W 005°21'4 7.3
2017-Sep-11 18:30N 35°59' W 005°23'713.9
2017-Sep-11 18:00N 35°57' W 005°31'712.7
2017-Sep-11 17:28N 35°55' W 005°39'912.7
2017-Sep-11 16:46N 35°54' W 005°50'4612.6
2017-Sep-11 13:07N 35°59' W 006°46'212.6
2017-Sep-11 13:00N 35°60' W 006°48'2912.3
2017-Sep-11 10:41N 36°07' W 007°22'212.0
2017-Sep-11 10:30N 36°07' W 007°25'611.6
2017-Sep-11 10:00N 36°08' W 007°32'611.1
2017-Sep-11 09:30N 36°10' W 007°39'611.6
2017-Sep-11 09:00N 36°11' W 007°46'612.0
2017-Sep-11 08:30N 36°12' W 007°53'1012.3
2017-Sep-11 07:40N 36°15' W 008°05'211.9
2017-Sep-11 07:29N 36°15' W 008°08'712.3
2017-Sep-11 06:57N 36°17' W 008°16'512.3
2017-Sep-11 06:30N 36°18' W 008°22'612.1
2017-Sep-11 06:00N 36°19' W 008°30'612.2
2017-Sep-11 05:30N 36°21' W 008°37'612.1
2017-Sep-11 05:00N 36°22' W 008°44'612.3
2017-Sep-11 04:29N 36°24' W 008°52'612.3
2017-Sep-11 04:00N 36°25' W 008°59'3011.5
2017-Sep-11 01:24N 36°40' W 009°32'512.7
2017-Sep-11 01:00N 36°43' W 009°36'712.2
2017-Sep-11 00:24N 36°50' W 009°39'712.7
2017-Sep-10 23:50N 36°57' W 009°41'1912.7
2017-Sep-10 22:22N 37°15' W 009°47'512.8
2017-Sep-10 21:59N 37°20' W 009°48'912.8
2017-Sep-10 21:17N 37°29' W 009°50'612.6
2017-Sep-10 20:47N 37°35' W 009°52'512.5
2017-Sep-10 20:24N 37°40' W 009°53'512.4
2017-Sep-10 20:00N 37°45' W 009°55'812.5
2017-Sep-10 19:22N 37°52' W 009°57'512.6
2017-Sep-10 19:00N 37°57' W 009°59'612.4
2017-Sep-10 18:30N 38°03' W 010°01'612.5
2017-Sep-10 18:00N 38°09' W 010°02'612.3
2017-Sep-10 17:30N 38°15' W 010°04'612.4
2017-Sep-10 17:00N 38°21' W 010°06'612.8
2017-Sep-10 16:30N 38°27' W 010°08'1013.2
2017-Sep-10 15:44N 38°37' W 010°11'312.9
2017-Sep-10 15:30N 38°40' W 010°12'612.7
2017-Sep-10 15:00N 38°46' W 010°12'1212.3
2017-Sep-10 14:01N 38°58' W 010°12'612.6
2017-Sep-10 13:30N 39°05' W 010°12'612.7
2017-Sep-10 13:00N 39°11' W 010°12'1112.9
2017-Sep-10 12:10N 39°22' W 010°12'513.1
2017-Sep-10 11:48N 39°27' W 010°12'  
2017-Sep-08 02:32N 49°27' W 004°21'412.1
2017-Sep-08 02:14N 49°29' W 004°16'612.5
2017-Sep-08 01:47N 49°32' W 004°08'412.8
2017-Sep-08 01:29N 49°34' W 004°03'613.1
2017-Sep-08 01:00N 49°37' W 003°55'713.2
2017-Sep-08 00:30N 49°41' W 003°46'713.1
2017-Sep-08 00:00N 49°44' W 003°37'612.7
2017-Sep-07 23:30N 49°47' W 003°29'612.1
2017-Sep-07 23:00N 49°50' W 003°21'611.4
2017-Sep-07 22:30N 49°53' W 003°13'  
Track history (hours):
 
Tides and Currents Weather Stations Pressure Air Temp Water Temp Dewpoint Dewpoint Depression Visibility Wind Speed Wind Dir Waves Ship Positions

Torm Estrid

Last reported at 2017-Sep-17 22:12 UTC. Time now 2017-Sep-25 06:29 UTC.
Position N 32°51' E 028°47'.

Length 229 m; draft 12.6 m.

Type: Ship (hazmat cat C). MMSI: 220237000.

Date/timePositionNaut miles runAvg speedWind from/ knotsBaromVisibWave heightAir tempDewpointWater temp
2017-Sep-17 22:12N 32°51' E 028°47'11411.9
2017-Sep-17 12:38N 33°34' E 026°41'212.4
2017-Sep-17 12:27N 33°35' E 026°38'14811.7
2017-Sep-16 23:47N 34°26' E 023°51'1811.8
2017-Sep-16 22:17N 34°31' E 023°31'711.6
2017-Sep-16 21:40N 34°32' E 023°22'211.8
2017-Sep-16 21:29N 34°33' E 023°20'2611.9
2017-Sep-16 19:19N 34°39' E 022°50'412.0
2017-Sep-16 19:00N 34°40' E 022°45'611.6
2017-Sep-16 18:28N 34°42' E 022°38'3912.2
2017-Sep-16 15:15N 34°52' E 021°52'7711.2
2017-Sep-16 08:26N 35°11' E 020°21'13411.4
2017-Sep-15 20:37N 35°44' E 017°41'211.5
2017-Sep-15 20:27N 35°44' E 017°39'6911.5
2017-Sep-15 14:30N 36°02' E 016°17'510.6
2017-Sep-15 14:00N 36°03' E 016°11'3713.9
2017-Sep-15 11:23N 36°12' E 015°27'711.8
2017-Sep-15 10:48N 36°14' E 015°18'411.8
2017-Sep-15 10:26N 36°15' E 015°13'512.0
2017-Sep-15 10:00N 36°16' E 015°07'711.8
2017-Sep-15 09:23N 36°18' E 014°58'512.7
2017-Sep-15 08:58N 36°19' E 014°52'612.8
2017-Sep-15 08:30N 36°20' E 014°45'612.7
2017-Sep-15 08:00N 36°22' E 014°37'712.7
2017-Sep-15 07:29N 36°24' E 014°29'612.6
2017-Sep-15 07:00N 36°25' E 014°22'612.4
2017-Sep-15 06:30N 36°28' E 014°15'612.5
2017-Sep-15 06:00N 36°30' E 014°07'712.7
2017-Sep-15 05:26N 36°32' E 013°59'512.7
2017-Sep-15 05:00N 36°34' E 013°53'612.8
2017-Sep-15 04:30N 36°37' E 013°45'612.9
2017-Sep-15 04:00N 36°39' E 013°38'612.7
2017-Sep-15 03:30N 36°41' E 013°30'612.8
2017-Sep-15 03:00N 36°43' E 013°23'612.9
2017-Sep-15 02:30N 36°46' E 013°16'612.7
2017-Sep-15 02:00N 36°48' E 013°08'612.6
2017-Sep-15 01:30N 36°50' E 013°01'612.5
2017-Sep-15 01:00N 36°52' E 012°53'612.6
2017-Sep-15 00:30N 36°54' E 012°46'612.7
2017-Sep-15 00:00N 36°56' E 012°38'612.7
2017-Sep-14 23:29N 36°58' E 012°31'612.6
2017-Sep-14 23:00N 36°60' E 012°23'1212.4
2017-Sep-14 22:04N 37°04' E 012°09'1312.0
2017-Sep-14 20:58N 37°08' E 011°54'712.1
2017-Sep-14 20:24N 37°10' E 011°46'512.0
2017-Sep-14 20:00N 37°12' E 011°40'612.0
2017-Sep-14 19:30N 37°14' E 011°33'611.9
2017-Sep-14 19:00N 37°16' E 011°26'611.9
2017-Sep-14 18:30N 37°18' E 011°19'10512.1
2017-Sep-14 09:49N 37°41' E 009°10'412.1
2017-Sep-14 09:29N 37°41' E 009°05'612.0
2017-Sep-14 09:00N 37°42' E 008°58'1112.0
2017-Sep-14 08:04N 37°43' E 008°44'111.9
2017-Sep-14 08:00N 37°43' E 008°43'612.0
2017-Sep-14 07:29N 37°42' E 008°35'40411.8
2017-Sep-12 21:15N 36°43' E 000°13'24212.3
2017-Sep-12 01:35N 36°03' W 004°43'413.9
2017-Sep-12 01:18N 36°03' W 004°48'513.8
2017-Sep-12 00:58N 36°03' W 004°54'613.6
2017-Sep-12 00:30N 36°02' W 005°02'714.1
2017-Sep-12 00:00N 36°01' W 005°10'612.6
2017-Sep-11 23:31N 36°01' W 005°18'612.3
2017-Sep-11 23:00N 36°05' W 005°24'0 0.9
2017-Sep-11 22:30N 36°05' W 005°24'0 0.1
2017-Sep-11 22:00N 36°05' W 005°24'0 0.0
2017-Sep-11 21:30N 36°05' W 005°24'0 0.0
2017-Sep-11 21:00N 36°05' W 005°24'0 0.1
2017-Sep-11 20:30N 36°05' W 005°24'0 0.1
2017-Sep-11 20:00N 36°05' W 005°24'0 0.9
2017-Sep-11 19:30N 36°05' W 005°24'3 6.3
2017-Sep-11 19:00N 36°03' W 005°21'4 7.3
2017-Sep-11 18:30N 35°59' W 005°23'713.9
2017-Sep-11 18:00N 35°57' W 005°31'712.7
2017-Sep-11 17:28N 35°55' W 005°39'912.7
2017-Sep-11 16:46N 35°54' W 005°50'4612.6
2017-Sep-11 13:07N 35°59' W 006°46'212.6
2017-Sep-11 13:00N 35°60' W 006°48'2912.3
2017-Sep-11 10:41N 36°07' W 007°22'212.0
2017-Sep-11 10:30N 36°07' W 007°25'611.6
2017-Sep-11 10:00N 36°08' W 007°32'611.1
2017-Sep-11 09:30N 36°10' W 007°39'611.6
2017-Sep-11 09:00N 36°11' W 007°46'612.0
2017-Sep-11 08:30N 36°12' W 007°53'1012.3
2017-Sep-11 07:40N 36°15' W 008°05'211.9
2017-Sep-11 07:29N 36°15' W 008°08'712.3
2017-Sep-11 06:57N 36°17' W 008°16'512.3
2017-Sep-11 06:30N 36°18' W 008°22'612.1
2017-Sep-11 06:00N 36°19' W 008°30'612.2
2017-Sep-11 05:30N 36°21' W 008°37'612.1
2017-Sep-11 05:00N 36°22' W 008°44'612.3
2017-Sep-11 04:29N 36°24' W 008°52'612.3
2017-Sep-11 04:00N 36°25' W 008°59'3011.5
2017-Sep-11 01:24N 36°40' W 009°32'512.7
2017-Sep-11 01:00N 36°43' W 009°36'712.2
2017-Sep-11 00:24N 36°50' W 009°39'712.7
2017-Sep-10 23:50N 36°57' W 009°41'1912.7
2017-Sep-10 22:22N 37°15' W 009°47'512.8
2017-Sep-10 21:59N 37°20' W 009°48'912.8
2017-Sep-10 21:17N 37°29' W 009°50'612.6
2017-Sep-10 20:47N 37°35' W 009°52'512.5
2017-Sep-10 20:24N 37°40' W 009°53'512.4
2017-Sep-10 20:00N 37°45' W 009°55'812.5
2017-Sep-10 19:22N 37°52' W 009°57'512.6
2017-Sep-10 19:00N 37°57' W 009°59'612.4
2017-Sep-10 18:30N 38°03' W 010°01'612.5
2017-Sep-10 18:00N 38°09' W 010°02'612.3
2017-Sep-10 17:30N 38°15' W 010°04'612.4
2017-Sep-10 17:00N 38°21' W 010°06'612.8
2017-Sep-10 16:30N 38°27' W 010°08'1013.2
2017-Sep-10 15:44N 38°37' W 010°11'312.9
2017-Sep-10 15:30N 38°40' W 010°12'612.7
2017-Sep-10 15:00N 38°46' W 010°12'1212.3
2017-Sep-10 14:01N 38°58' W 010°12'612.6
2017-Sep-10 13:30N 39°05' W 010°12'612.7
2017-Sep-10 13:00N 39°11' W 010°12'1112.9
2017-Sep-10 12:10N 39°22' W 010°12'513.1
2017-Sep-10 11:48N 39°27' W 010°12'  
2017-Sep-08 02:32N 49°27' W 004°21'412.1
2017-Sep-08 02:14N 49°29' W 004°16'612.5
2017-Sep-08 01:47N 49°32' W 004°08'412.8
2017-Sep-08 01:29N 49°34' W 004°03'613.1
2017-Sep-08 01:00N 49°37' W 003°55'713.2
2017-Sep-08 00:30N 49°41' W 003°46'713.1
2017-Sep-08 00:00N 49°44' W 003°37'612.7
2017-Sep-07 23:30N 49°47' W 003°29'612.1
2017-Sep-07 23:00N 49°50' W 003°21'611.4
2017-Sep-07 22:30N 49°53' W 003°13'  

Dump ship's entire track history